CST,Max TemperatureF,Mean TemperatureF,Min TemperatureF,Max Dew PointF,MeanDew PointF,Min DewpointF,Max Humidity, Mean Humidity, Min Humidity, Max Sea Level PressureIn, Mean Sea Level PressureIn, Min Sea Level PressureIn, Max VisibilityMiles, Mean VisibilityMiles, Min VisibilityMiles, Max Wind SpeedMPH, Mean Wind SpeedMPH, Max Gust SpeedMPH,PrecipitationIn, CloudCover, Events, WindDirDegrees
2012-11-1,42,35,27,36,27,19,81,68,47,30.13,30.06,29.98,10,10,10,18,12,25,0.00,4,,355
2012-11-2,36,30,25,25,23,20,85,72,59,30.21,30.17,30.13,10,10,10,10,6,,0.00,4,,78
2012-11-3,36,34,33,31,28,24,89,79,67,30.27,30.23,30.18,10,10,7,7,3,,0.00,8,Snow,126
2012-11-4,37,35,33,31,29,27,89,78,67,30.26,30.22,30.18,10,10,8,10,6,,0.00,8,,88
2012-11-5,37,34,32,36,32,27,100,92,65,30.23,30.10,29.88,10,4,0,15,8,,0.07,8,Fog-Snow,139
2012-11-6,39,37,35,36,34,33,96,85,77,30.05,29.88,29.75,10,9,3,25,16,33,0.09,8,Rain,308
2012-11-7,46,40,33,36,33,31,100,82,56,30.14,30.07,29.97,10,8,0,17,7,,0.00,4,Fog,232
2012-11-8,50,42,35,36,33,30,83,76,59,30.08,29.98,29.89,10,10,10,17,13,24,0.00,3,,47
2012-11-9,42,40,37,35,33,32,83,80,70,30.10,30.03,29.92,10,10,10,23,14,31,0.00,8,,67
2012-11-10,46,42,35,46,39,-2,100,92,15,29.88,29.58,29.42,10,2,0,22,15,29,0.46,8,Fog-Rain-Thunderstorm,101
2012-11-11,33,25,17,32,20,12,100,88,77,29.94,29.79,29.57,10,9,4,23,19,31,0.00,8,Snow,280
2012-11-12,19,17,15,16,13,10,93,83,79,30.32,30.02,29.85,10,5,0,23,16,30,0.00,7,Fog-Snow,284
2012-11-13,37,24,12,31,22,10,92,80,65,30.33,30.30,30.27,10,10,10,10,5,,0.00,3,,188
2012-11-14,45,36,26,32,28,23,89,75,58,30.27,30.21,30.13,10,10,10,10,6,,0.00,2,,192
2012-11-15,39,32,25,31,22,12,89,66,44,30.53,30.34,30.12,10,10,10,16,9,22,0.00,1,,316
2012-11-16,39,28,18,24,15,11,81,58,35,30.54,30.41,30.24,10,10,10,16,7,,0.00,0,,144
2012-11-17,51,44,37,35,33,28,73,64,54,30.22,30.15,30.10,10,10,10,17,14,25,0.00,1,,170
2012-11-18,53,44,36,36,33,30,79,61,48,30.09,30.04,30.01,10,10,10,18,14,21,0.00,0,,163
2012-11-19,53,44,30,38,35,29,92,71,55,30.17,30.06,29.99,10,9,4,14,9,,0.00,0,,262
2012-11-20,48,34,21,34,26,19,100,83,46,30.22,30.13,29.98,10,5,0,13,3,,0.00,0,Fog,143
2012-11-21,59,47,35,39,34,29,82,64,41,29.95,29.83,29.59,10,10,10,15,7,,0.00,0,,173
2012-11-22,48,32,17,38,23,12,93,83,65,30.15,29.89,29.58,10,4,0,32,18,44,0.01,7,Fog-Snow,305
2012-11-23,19,16,12,12,9,7,81,77,71,30.48,30.31,30.09,10,6,1,34,24,46,0.00,8,Snow,319
2012-11-24,28,18,8,22,12,6,92,79,69,30.40,30.08,29.78,10,10,10,18,7,,0.00,7,,162
2012-11-25,28,20,10,22,17,4,86,76,65,30.30,30.04,29.83,10,10,10,20,15,26,0.00,8,,321
2012-11-26,17,11,5,7,4,1,84,73,62,30.50,30.41,30.31,10,10,10,14,9,,0.00,0,,285
2012-11-27,32,24,16,22,17,7,81,74,64,30.31,30.22,30.08,10,10,10,14,11,,0.00,4,,275
2012-11-28,34,29,24,24,21,18,81,76,67,30.33,30.23,30.09,10,10,10,14,10,,0.00,4,,216
2012-11-29,30,26,21,25,23,19,92,83,75,30.17,30.12,30.04,10,8,5,17,9,24,0.00,4,,72
2012-11-30,32,28,25,30,26,21,93,89,84,30.22,30.13,29.99,10,5,2,18,12,25,0.00,8,,119